createdAt,value
2019-03-18T00:00:47.244Z,4.70
2019-03-18T00:02:51.064Z,4.87
2019-03-18T00:04:54.656Z,4.20
2019-03-18T00:06:58.460Z,7.83
2019-03-18T00:09:02.046Z,4.50
2019-03-18T00:11:05.771Z,3.03
2019-03-18T00:13:09.545Z,3.70
2019-03-18T00:15:13.357Z,7.13
2019-03-18T00:17:17.057Z,4.77
2019-03-18T00:19:20.780Z,6.43
2019-03-18T00:21:24.647Z,6.43
2019-03-18T00:23:28.384Z,4.83
2019-03-18T00:25:32.086Z,6.03
2019-03-18T00:27:36.970Z,5.00
2019-03-18T00:29:40.561Z,4.80
2019-03-18T00:31:44.261Z,4.10
2019-03-18T00:33:47.925Z,5.50
2019-03-18T00:35:51.676Z,6.30
2019-03-18T00:37:55.360Z,3.93
2019-03-18T00:39:59.056Z,11.03
2019-03-18T00:42:02.749Z,5.00
2019-03-18T00:44:06.485Z,3.47
2019-03-18T00:46:10.292Z,5.43
2019-03-18T00:48:13.930Z,7.80
2019-03-18T00:50:18.171Z,5.93
2019-03-18T00:52:21.848Z,4.50
2019-03-18T00:54:26.631Z,6.33
2019-03-18T00:56:30.521Z,8.47
2019-03-18T00:58:34.282Z,7.30
2019-03-18T01:00:38.122Z,6.97
2019-03-18T01:02:41.987Z,7.20
2019-03-18T01:04:46.033Z,10.80
2019-03-18T01:06:49.694Z,5.27
2019-03-18T01:08:53.412Z,10.73
2019-03-18T01:10:58.115Z,9.50
2019-03-18T01:13:01.915Z,6.30
2019-03-18T01:15:07.859Z,8.23
2019-03-18T01:17:11.703Z,7.20
2019-03-18T01:19:16.674Z,7.50
2019-03-18T01:21:20.426Z,7.20
2019-03-18T01:23:24.215Z,10.53
2019-03-18T01:25:27.940Z,5.97
2019-03-18T01:27:31.711Z,6.23
2019-03-18T01:29:35.455Z,12.53
2019-03-18T01:31:41.943Z,8.80
2019-03-18T01:33:45.546Z,7.03
2019-03-18T01:35:49.317Z,9.63
2019-03-18T01:37:52.933Z,6.53
2019-03-18T01:39:56.673Z,6.20
2019-03-18T01:42:00.482Z,8.67
2019-03-18T01:44:04.231Z,5.90
2019-03-18T01:46:07.958Z,8.93
2019-03-18T01:48:11.777Z,7.30
2019-03-18T01:50:16.140Z,5.27
2019-03-18T01:52:20.859Z,8.60
2019-03-18T01:54:24.925Z,6.10
2019-03-18T01:56:29.599Z,6.30
2019-03-18T01:58:33.289Z,6.20
2019-03-18T02:00:38.371Z,13.23
2019-03-18T02:02:42.067Z,9.30
2019-03-18T02:04:45.915Z,6.13
2019-03-18T02:06:49.528Z,5.70
2019-03-18T02:08:53.237Z,7.90
2019-03-18T02:10:56.921Z,6.37
2019-03-18T02:13:00.908Z,7.10
2019-03-18T02:15:07.008Z,5.40
2019-03-18T02:17:10.801Z,7.30
2019-03-18T02:19:14.528Z,6.50
2019-03-18T02:21:18.234Z,6.63
2019-03-18T02:23:22.016Z,12.50
2019-03-18T02:25:26.778Z,7.77
2019-03-18T02:27:30.354Z,5.90
2019-03-18T02:29:34.137Z,8.67
2019-03-18T02:31:37.775Z,8.93
2019-03-18T02:33:41.509Z,11.90
2019-03-18T02:35:45.239Z,7.17
2019-03-18T02:37:49.091Z,5.37
2019-03-18T02:39:52.750Z,5.50
2019-03-18T02:41:56.443Z,9.53
2019-03-18T02:44:00.058Z,11.83
2019-03-18T02:46:09.859Z,6.30
2019-03-18T02:48:09.099Z,5.83
2019-03-18T02:50:14.297Z,5.83
2019-03-18T02:52:18.064Z,7.27
2019-03-18T02:54:21.775Z,7.80
2019-03-18T02:56:25.690Z,9.00
2019-03-18T02:58:30.521Z,8.23
2019-03-18T03:00:34.386Z,6.53
2019-03-18T03:02:38.114Z,8.90
2019-03-18T03:04:41.813Z,7.90
2019-03-18T03:06:45.487Z,4.73
2019-03-18T03:08:49.067Z,6.00
2019-03-18T03:10:55.057Z,7.50
2019-03-18T03:12:58.822Z,7.97
2019-03-18T03:15:02.471Z,8.73
2019-03-18T03:17:06.203Z,4.93
2019-03-18T03:19:09.940Z,7.83
2019-03-18T03:21:13.649Z,6.47
2019-03-18T03:23:17.308Z,7.77
2019-03-18T03:25:24.639Z,9.43
2019-03-18T03:27:26.345Z,6.77
2019-03-18T03:29:29.943Z,8.13
2019-03-18T03:31:33.584Z,7.47
2019-03-18T03:33:37.371Z,5.17
2019-03-18T03:35:41.014Z,4.83
2019-03-18T03:37:44.848Z,7.87
2019-03-18T03:39:48.530Z,5.73
2019-03-18T03:41:52.387Z,5.30
2019-03-18T03:43:56.062Z,6.93
2019-03-18T03:46:00.444Z,4.90
2019-03-18T03:48:04.527Z,7.17
2019-03-18T03:50:14.014Z,10.60
2019-03-18T03:52:17.986Z,4.80
2019-03-18T03:54:21.815Z,4.13
2019-03-18T03:56:25.902Z,7.10
2019-03-18T03:58:29.833Z,6.30
2019-03-18T04:00:33.548Z,7.97
2019-03-18T04:02:37.466Z,7.83
2019-03-18T04:04:41.238Z,5.00
2019-03-18T04:06:45.149Z,6.50
2019-03-18T04:08:48.869Z,6.37
2019-03-18T04:10:52.699Z,8.13
2019-03-18T04:12:56.646Z,9.90
2019-03-18T04:15:00.588Z,8.00
2019-03-18T04:17:04.572Z,6.83
2019-03-18T04:19:08.305Z,6.90
2019-03-18T04:21:12.009Z,7.47
2019-03-18T04:23:15.881Z,5.83
2019-03-18T04:25:19.542Z,10.53
2019-03-18T04:27:24.957Z,6.40
2019-03-18T04:29:28.877Z,7.10
2019-03-18T04:31:32.895Z,6.53
2019-03-18T04:33:39.218Z,7.83
2019-03-18T04:35:42.201Z,9.00
2019-03-18T04:37:45.979Z,6.13
2019-03-18T04:39:49.738Z,7.37
2019-03-18T04:41:53.341Z,5.90
2019-03-18T04:43:57.606Z,7.33
2019-03-18T04:46:01.214Z,4.73
2019-03-18T04:48:04.932Z,6.00
2019-03-18T04:50:10.726Z,6.47
2019-03-18T04:52:14.498Z,4.97
2019-03-18T04:54:18.452Z,9.53
2019-03-18T04:56:22.260Z,5.63
2019-03-18T04:58:26.050Z,6.93
2019-03-18T05:00:29.855Z,6.77
2019-03-18T05:02:33.588Z,10.83
2019-03-18T05:04:37.347Z,10.43
2019-03-18T05:06:41.156Z,7.20
2019-03-18T05:08:44.853Z,7.20
2019-03-18T05:10:48.585Z,11.50
2019-03-18T05:12:52.375Z,6.23
2019-03-18T05:14:56.137Z,8.73
2019-03-18T05:16:59.888Z,7.87
2019-03-18T05:19:03.852Z,9.63
2019-03-18T05:21:07.511Z,7.97
2019-03-18T05:23:11.283Z,8.77
2019-03-18T05:25:15.145Z,8.27
2019-03-18T05:27:18.807Z,7.70
2019-03-18T05:29:22.645Z,8.73
2019-03-18T05:31:26.304Z,7.20
2019-03-18T05:33:30.158Z,11.10
2019-03-18T05:35:33.838Z,10.30
2019-03-18T05:37:38.615Z,7.30
2019-03-18T05:39:42.354Z,7.83
2019-03-18T05:41:46.645Z,8.97
2019-03-18T05:43:50.736Z,10.53
2019-03-18T05:45:54.679Z,10.57
2019-03-18T05:47:58.866Z,9.50
2019-03-18T05:50:02.952Z,10.80
2019-03-18T05:52:06.822Z,8.53
2019-03-18T05:54:10.834Z,12.80
2019-03-18T05:56:14.852Z,9.23
2019-03-18T05:58:18.777Z,7.83
2019-03-18T06:00:22.633Z,11.97
2019-03-18T06:02:26.546Z,10.70
2019-03-18T06:04:30.426Z,9.77
2019-03-18T06:06:35.089Z,10.33
2019-03-18T06:08:39.038Z,9.43
2019-03-18T06:10:43.085Z,11.47
2019-03-18T06:12:46.986Z,10.60
2019-03-18T06:14:52.334Z,9.97
2019-03-18T06:16:56.684Z,11.63
2019-03-18T06:19:00.784Z,11.87
2019-03-18T06:21:04.861Z,10.70
2019-03-18T06:23:09.002Z,7.80
2019-03-18T06:25:13.085Z,10.77
2019-03-18T06:27:17.339Z,8.90
2019-03-18T06:29:21.794Z,10.97
2019-03-18T06:31:25.936Z,9.27
2019-03-18T06:33:29.946Z,8.57
2019-03-18T06:35:33.926Z,12.90
2019-03-18T06:37:37.849Z,9.73
2019-03-18T06:39:41.840Z,8.77
2019-03-18T06:41:45.953Z,8.70
2019-03-18T06:43:50.030Z,7.47
2019-03-18T06:45:54.165Z,18.57
2019-03-18T06:48:04.875Z,8.20
2019-03-18T06:50:04.706Z,9.13
2019-03-18T06:52:08.979Z,6.17
2019-03-18T06:54:13.104Z,8.10
2019-03-18T06:56:17.261Z,8.20
2019-03-18T06:58:21.224Z,8.50
2019-03-18T07:00:25.278Z,9.33
2019-03-18T07:02:29.588Z,7.47
2019-03-18T07:04:33.696Z,8.60
2019-03-18T07:06:37.820Z,8.50
2019-03-18T07:08:42.813Z,9.93
2019-03-18T07:10:46.938Z,8.70
2019-03-18T07:12:50.975Z,7.10
2019-03-18T07:14:55.165Z,7.13
2019-03-18T07:16:59.246Z,7.73
2019-03-18T07:19:03.318Z,10.90
2019-03-18T07:21:07.277Z,8.03
2019-03-18T07:23:11.399Z,8.00
2019-03-18T07:25:15.381Z,9.93
2019-03-18T07:27:19.166Z,13.80
2019-03-18T07:29:23.169Z,9.13
2019-03-18T07:31:27.283Z,11.40
2019-03-18T07:33:31.258Z,12.37
2019-03-18T07:35:35.353Z,14.27
2019-03-18T07:37:39.313Z,14.00
2019-03-18T07:39:43.302Z,10.30
2019-03-18T07:41:47.227Z,14.47
2019-03-18T07:43:51.231Z,10.93
2019-03-18T07:45:55.441Z,10.70
2019-03-18T07:47:59.518Z,13.57
2019-03-18T07:50:03.604Z,11.40
2019-03-18T07:52:07.646Z,11.63
2019-03-18T07:54:11.656Z,8.83
2019-03-18T07:56:15.653Z,10.13
2019-03-18T07:58:22.340Z,11.27
2019-03-18T08:00:25.405Z,9.50
2019-03-18T08:02:29.522Z,12.10
2019-03-18T08:04:37.613Z,11.10
2019-03-18T08:06:39.051Z,13.50
2019-03-18T08:08:43.063Z,13.10
2019-03-18T08:10:47.174Z,11.70
2019-03-18T08:12:51.472Z,11.33
2019-03-18T08:14:55.610Z,12.70
2019-03-18T08:16:59.709Z,13.83
2019-03-18T08:19:03.788Z,12.77
2019-03-18T08:21:07.828Z,12.53
2019-03-18T08:23:11.917Z,10.73
2019-03-18T08:25:15.914Z,12.80
2019-03-18T08:27:19.736Z,11.53
2019-03-18T08:29:24.056Z,11.70
2019-03-18T08:31:28.244Z,9.60
2019-03-18T08:33:32.467Z,16.87
2019-03-18T08:35:36.283Z,11.97
2019-03-18T08:37:40.488Z,9.70
2019-03-18T08:39:44.606Z,11.80
2019-03-18T08:41:48.613Z,13.03
2019-03-18T08:43:52.818Z,14.80
2019-03-18T08:45:57.001Z,9.70
2019-03-18T08:48:01.109Z,11.60
2019-03-18T08:50:07.584Z,9.90
2019-03-18T08:52:11.585Z,11.73
2019-03-18T08:54:15.536Z,9.03
2019-03-18T08:56:19.582Z,6.47
2019-03-18T08:58:23.604Z,7.33
2019-03-18T09:00:28.013Z,7.10
2019-03-18T09:02:31.907Z,15.07
2019-03-18T09:04:36.024Z,6.77
2019-03-18T09:06:39.935Z,9.40
2019-03-18T09:08:43.890Z,5.73
2019-03-18T09:10:47.833Z,7.30
2019-03-18T09:12:51.743Z,13.07
2019-03-18T09:14:55.716Z,11.67
2019-03-18T09:16:59.786Z,6.37
2019-03-18T09:19:13.481Z,11.60
2019-03-18T09:21:27.636Z,7.33
2019-03-18T09:23:31.422Z,7.50
2019-03-18T09:25:35.444Z,7.30
2019-03-18T09:27:39.630Z,6.40
2019-03-18T09:29:43.746Z,6.73
2019-03-18T09:31:47.628Z,9.87
2019-03-18T09:33:51.777Z,7.33
2019-03-18T09:35:55.749Z,7.00
2019-03-18T09:37:59.723Z,9.30
2019-03-18T09:40:04.955Z,6.90
2019-03-18T09:42:09.097Z,8.53
2019-03-18T09:44:13.116Z,8.97
2019-03-18T09:46:17.124Z,7.60
2019-03-18T09:48:21.708Z,11.60
2019-03-18T09:50:25.589Z,11.07
2019-03-18T09:52:29.395Z,14.50
2019-03-18T09:54:33.369Z,13.10
2019-03-18T09:56:37.345Z,9.60
2019-03-18T09:58:41.566Z,12.80
2019-03-18T10:00:45.733Z,10.37
2019-03-18T10:02:49.879Z,14.27
2019-03-18T10:04:54.197Z,9.10
2019-03-18T10:06:58.134Z,11.83
2019-03-18T10:09:02.084Z,9.20
2019-03-18T10:11:06.206Z,7.93
2019-03-18T10:13:10.176Z,10.73
2019-03-18T10:15:16.126Z,8.43
2019-03-18T10:17:20.367Z,8.60
2019-03-18T10:19:33.053Z,7.43
2019-03-18T10:21:29.946Z,6.17
2019-03-18T10:23:34.120Z,11.60
2019-03-18T10:25:38.416Z,6.37
2019-03-18T10:27:42.352Z,6.60
2019-03-18T10:29:46.246Z,7.17
2019-03-18T10:31:50.595Z,9.27
2019-03-18T10:33:54.448Z,9.23
2019-03-18T10:35:58.427Z,6.00
2019-03-18T10:38:02.564Z,7.60
2019-03-18T10:40:11.500Z,6.73
2019-03-18T10:42:15.694Z,10.33
2019-03-18T10:44:20.361Z,6.23
2019-03-18T10:46:26.307Z,8.33
2019-03-18T10:48:30.072Z,5.83
2019-03-18T10:50:34.134Z,6.30
2019-03-18T10:52:38.183Z,8.90
2019-03-18T10:54:43.362Z,5.30
2019-03-18T10:56:47.299Z,7.47
2019-03-18T10:58:51.453Z,7.57
2019-03-18T11:00:57.173Z,7.27
2019-03-18T11:03:01.457Z,8.00
2019-03-18T11:05:08.177Z,7.87
2019-03-18T11:07:12.686Z,5.67
2019-03-18T11:09:16.521Z,21.90
2019-03-18T11:11:20.522Z,10.23
2019-03-18T11:13:24.405Z,6.77
2019-03-18T11:15:28.287Z,6.30
2019-03-18T11:17:32.248Z,6.50
2019-03-18T11:19:36.237Z,6.23
2019-03-18T11:21:40.128Z,8.50
2019-03-18T11:23:44.023Z,5.90
2019-03-18T11:25:47.987Z,4.90
2019-03-18T11:27:51.870Z,7.20
2019-03-18T11:29:55.893Z,5.93
2019-03-18T11:31:59.694Z,11.03
2019-03-18T11:34:03.640Z,4.63
2019-03-18T11:36:07.514Z,6.10
2019-03-18T11:38:11.690Z,6.53
2019-03-18T11:40:22.342Z,4.13
2019-03-18T11:42:26.373Z,5.20
2019-03-18T11:44:30.903Z,6.43
2019-03-18T11:46:34.838Z,5.50
2019-03-18T11:48:38.862Z,4.33
2019-03-18T11:50:42.864Z,4.03
2019-03-18T11:53:14.141Z,6.93
2019-03-18T11:55:19.321Z,3.17
2019-03-18T11:57:23.314Z,3.73
2019-03-18T11:59:27.292Z,3.40
2019-03-18T12:01:31.220Z,3.80
2019-03-18T12:03:35.174Z,4.40
2019-03-18T12:05:39.145Z,3.33
2019-03-18T12:07:43.086Z,2.93
2019-03-18T12:09:46.955Z,3.00
2019-03-18T12:11:50.858Z,6.13
2019-03-18T12:13:54.831Z,5.70
2019-03-18T12:15:59.039Z,4.20
2019-03-18T12:18:03.141Z,2.23
2019-03-18T12:20:22.993Z,2.87
2019-03-18T12:22:15.660Z,2.43
2019-03-18T12:24:19.825Z,5.03
2019-03-18T12:26:23.872Z,2.10
2019-03-18T12:28:28.098Z,2.30
2019-03-18T12:30:32.306Z,3.10
2019-03-18T12:32:36.413Z,2.97
2019-03-18T12:34:40.404Z,3.37
2019-03-18T12:36:44.268Z,3.93
2019-03-18T12:38:48.318Z,3.10
2019-03-18T12:40:52.259Z,2.20
2019-03-18T12:42:56.240Z,3.93
2019-03-18T12:45:00.483Z,4.13
2019-03-18T12:47:04.530Z,3.63
2019-03-18T12:49:08.504Z,2.93
2019-03-18T12:51:12.652Z,3.00
2019-03-18T12:53:16.584Z,2.40
2019-03-18T12:55:20.468Z,3.33
2019-03-18T12:57:24.307Z,2.77
2019-03-18T12:59:28.266Z,2.60
2019-03-18T13:01:32.222Z,2.20
2019-03-18T13:03:36.759Z,3.00
2019-03-18T13:05:41.744Z,3.10
2019-03-18T13:07:45.788Z,2.40
2019-03-18T13:09:49.795Z,3.43
2019-03-18T13:11:53.868Z,2.30
2019-03-18T13:13:57.830Z,3.27
2019-03-18T13:16:01.946Z,3.80
2019-03-18T13:18:07.172Z,3.87
2019-03-18T13:20:13.359Z,3.53
2019-03-18T13:22:17.242Z,2.90
2019-03-18T13:24:21.239Z,4.33
2019-03-18T13:26:25.157Z,4.07
2019-03-18T13:28:29.465Z,4.37
2019-03-18T13:30:33.765Z,5.10
2019-03-18T13:32:37.898Z,3.30
2019-03-18T13:34:42.299Z,2.83
2019-03-18T13:36:46.185Z,5.00
2019-03-18T13:38:50.464Z,4.47
2019-03-18T13:40:54.957Z,2.10
2019-03-18T13:42:59.159Z,3.70
2019-03-18T13:45:03.547Z,2.53
2019-03-18T13:47:07.896Z,2.03
2019-03-18T13:49:11.852Z,3.17
2019-03-18T13:51:20.917Z,5.03
2019-03-18T13:53:21.944Z,1.73
2019-03-18T13:55:26.303Z,2.23
2019-03-18T13:57:30.384Z,1.93
2019-03-18T13:59:34.546Z,3.30
2019-03-18T14:01:38.482Z,2.40
2019-03-18T14:03:42.566Z,4.07
2019-03-18T14:05:46.780Z,1.80
2019-03-18T14:08:00.020Z,3.10
2019-03-18T14:09:56.521Z,3.43
2019-03-18T14:12:00.672Z,3.17
2019-03-18T14:14:04.802Z,2.70
2019-03-18T14:16:08.946Z,2.77
2019-03-18T14:18:14.240Z,2.03
2019-03-18T14:20:22.254Z,2.03
2019-03-18T14:22:26.217Z,1.40
2019-03-18T14:24:30.339Z,3.37
2019-03-18T14:26:34.499Z,2.17
2019-03-18T14:28:38.926Z,3.67
2019-03-18T14:30:43.022Z,4.70
2019-03-18T14:32:48.284Z,1.67
2019-03-18T14:34:52.171Z,3.20
2019-03-18T14:36:56.943Z,2.40
2019-03-18T14:39:01.296Z,1.50
2019-03-18T14:41:05.993Z,2.80
2019-03-18T14:43:10.222Z,3.50
2019-03-18T14:45:19.440Z,3.00
2019-03-18T14:47:23.448Z,2.67
2019-03-18T14:49:27.688Z,3.43
2019-03-18T14:51:31.805Z,5.87
2019-03-18T14:53:36.067Z,4.40
2019-03-18T14:55:42.338Z,1.50
2019-03-18T14:57:46.244Z,3.40
2019-03-18T14:59:51.623Z,2.43
2019-03-18T15:01:56.028Z,4.13
2019-03-18T15:03:59.795Z,4.00
2019-03-18T15:06:03.612Z,3.57
2019-03-18T15:08:08.187Z,2.77
2019-03-18T15:10:24.175Z,2.33
2019-03-18T15:12:27.982Z,4.77
2019-03-18T15:14:32.381Z,3.73
2019-03-18T15:16:36.097Z,2.00
2019-03-18T15:18:39.991Z,2.40
2019-03-18T15:20:43.832Z,1.57
2019-03-18T15:22:47.696Z,1.63
2019-03-18T15:24:51.397Z,2.50
2019-03-18T15:26:55.164Z,3.60
2019-03-18T15:28:59.026Z,2.10
2019-03-18T15:31:02.827Z,1.90
2019-03-18T15:33:06.608Z,1.77
2019-03-18T15:35:10.828Z,2.60
2019-03-18T15:37:14.803Z,3.10
2019-03-18T15:39:18.448Z,2.90
2019-03-18T15:41:22.244Z,1.57
2019-03-18T15:43:25.948Z,4.07
2019-03-18T15:45:29.719Z,2.10
2019-03-18T15:47:34.898Z,4.10
2019-03-18T15:49:38.843Z,5.23
2019-03-18T15:51:42.699Z,2.60
2019-03-18T15:53:46.573Z,7.10
2019-03-18T15:55:51.378Z,15.33
2019-03-18T15:57:55.030Z,2.10
2019-03-18T15:59:58.722Z,8.60
2019-03-18T16:02:02.540Z,3.00
2019-03-18T16:04:08.013Z,2.50
2019-03-18T16:06:11.689Z,3.73
2019-03-18T16:08:15.547Z,25.93
2019-03-18T16:10:20.216Z,3.60
2019-03-18T16:12:24.150Z,3.07
2019-03-18T16:14:27.953Z,2.90
2019-03-18T16:16:31.731Z,2.33
2019-03-18T16:18:35.479Z,2.03
2019-03-18T16:20:39.323Z,35.87
2019-03-18T16:22:43.024Z,4.73
2019-03-18T16:24:47.069Z,7.50
2019-03-18T16:26:50.666Z,4.47
2019-03-18T16:28:54.446Z,3.00
2019-03-18T16:30:58.562Z,3.57
2019-03-18T16:33:04.275Z,1.67
2019-03-18T16:35:10.462Z,3.70
2019-03-18T16:37:15.500Z,2.80
2019-03-18T16:39:19.633Z,4.20
2019-03-18T16:41:23.696Z,2.17
2019-03-18T16:43:27.656Z,3.83
2019-03-18T16:45:31.664Z,2.77
2019-03-18T16:47:35.508Z,1.60
2019-03-18T16:49:39.620Z,7.40
2019-03-18T16:51:44.257Z,5.00
2019-03-18T16:53:50.441Z,1.90
2019-03-18T16:55:54.196Z,2.80
2019-03-18T16:57:58.091Z,2.27
2019-03-18T17:00:02.363Z,2.30
2019-03-18T17:02:06.927Z,2.50
2019-03-18T17:04:15.253Z,7.80
2019-03-18T17:06:19.614Z,2.40
2019-03-18T17:08:23.357Z,2.23
2019-03-18T17:10:27.017Z,3.17
2019-03-18T17:12:31.131Z,5.17
2019-03-18T17:14:35.044Z,4.97
2019-03-18T17:16:40.360Z,3.80
2019-03-18T17:18:44.106Z,2.73
2019-03-18T17:20:47.811Z,4.97
2019-03-18T17:22:51.481Z,2.20
2019-03-18T17:24:56.454Z,4.07
2019-03-18T17:27:00.602Z,4.27
2019-03-18T17:29:04.475Z,10.20
2019-03-18T17:31:08.229Z,8.87
2019-03-18T17:33:12.650Z,5.67
2019-03-18T17:35:17.640Z,3.60
2019-03-18T17:37:22.249Z,8.40
2019-03-18T17:39:26.542Z,4.80
2019-03-18T17:41:30.282Z,4.23
2019-03-18T17:43:34.052Z,3.33
2019-03-18T17:45:37.857Z,4.67
2019-03-18T17:47:42.348Z,4.27
2019-03-18T17:49:47.741Z,5.80
2019-03-18T17:51:53.116Z,3.80
2019-03-18T17:54:01.741Z,2.80
2019-03-18T17:56:07.866Z,4.60
2019-03-18T17:58:11.820Z,4.07
2019-03-18T18:00:18.416Z,4.37
2019-03-18T18:02:22.132Z,3.70
2019-03-18T18:04:25.833Z,4.67
2019-03-18T18:06:29.637Z,3.60
2019-03-18T18:08:33.300Z,2.60
2019-03-18T18:10:37.109Z,4.50
2019-03-18T18:12:40.771Z,3.90
2019-03-18T18:14:44.580Z,3.50
2019-03-18T18:16:48.857Z,3.57
2019-03-18T18:18:52.792Z,4.13
2019-03-18T18:20:56.814Z,5.90
2019-03-18T18:23:13.231Z,4.90
2019-03-18T18:25:09.170Z,2.80
2019-03-18T18:27:13.470Z,7.13
2019-03-18T18:29:17.670Z,9.10
2019-03-18T18:31:22.430Z,10.63
2019-03-18T18:33:28.126Z,10.17
2019-03-18T18:35:34.013Z,8.70
2019-03-18T18:37:38.574Z,7.27
2019-03-18T18:39:42.382Z,6.10
2019-03-18T18:41:46.242Z,4.03
2019-03-18T18:43:50.104Z,2.60
2019-03-18T18:45:53.913Z,3.10
2019-03-18T18:47:57.655Z,5.10
2019-03-18T18:50:01.355Z,3.43
2019-03-18T18:52:05.129Z,7.07
2019-03-18T18:54:08.822Z,3.37
2019-03-18T18:56:12.745Z,5.80
2019-03-18T18:58:16.384Z,7.47
2019-03-18T19:00:21.976Z,5.17
2019-03-18T19:02:25.979Z,6.70
2019-03-18T19:04:29.926Z,10.73
2019-03-18T19:06:34.217Z,10.57
2019-03-18T19:08:37.988Z,7.80
2019-03-18T19:10:41.759Z,6.80
2019-03-18T19:12:45.780Z,9.07
2019-03-18T19:14:49.619Z,5.57
2019-03-18T19:16:53.361Z,4.97
2019-03-18T19:18:57.078Z,3.60
2019-03-18T19:21:00.892Z,5.70
2019-03-18T19:23:04.805Z,6.83
2019-03-18T19:25:11.331Z,9.73
2019-03-18T19:27:15.159Z,10.03
2019-03-18T19:29:19.162Z,12.17
2019-03-18T19:31:23.008Z,11.37
2019-03-18T19:33:27.267Z,10.30
2019-03-18T19:35:31.111Z,8.90
2019-03-18T19:37:35.876Z,11.23
2019-03-18T19:39:39.570Z,14.90
2019-03-18T19:41:43.459Z,8.90
2019-03-18T19:43:47.624Z,10.13
2019-03-18T19:45:51.406Z,9.37
2019-03-18T19:47:55.186Z,10.57
2019-03-18T19:49:58.943Z,10.33
2019-03-18T19:52:03.215Z,11.43
2019-03-18T19:54:07.277Z,28.10
2019-03-18T19:56:11.010Z,13.60
2019-03-18T19:58:15.792Z,13.90
2019-03-18T20:00:27.995Z,12.50
2019-03-18T20:02:31.757Z,10.27
2019-03-18T20:04:35.547Z,11.07
2019-03-18T20:06:40.387Z,8.67
2019-03-18T20:08:44.270Z,7.33
2019-03-18T20:10:48.173Z,7.53
2019-03-18T20:12:52.139Z,9.97
2019-03-18T20:14:55.950Z,11.03
2019-03-18T20:16:59.646Z,11.07
2019-03-18T20:19:03.280Z,9.90
2019-03-18T20:21:07.029Z,19.50
2019-03-18T20:23:12.044Z,28.10
2019-03-18T20:25:16.019Z,24.17
2019-03-18T20:27:19.820Z,19.33
2019-03-18T20:29:24.021Z,11.20
2019-03-18T20:31:29.431Z,4.50
2019-03-18T20:33:33.329Z,16.57
2019-03-18T20:35:37.219Z,15.20
2019-03-18T20:37:41.085Z,24.47
2019-03-18T20:39:44.975Z,13.87
2019-03-18T20:41:48.834Z,11.90
2019-03-18T20:43:52.752Z,9.40
2019-03-18T20:45:56.770Z,14.70
2019-03-18T20:48:00.676Z,10.33
2019-03-18T20:50:07.387Z,18.40
2019-03-18T20:52:16.826Z,12.50
2019-03-18T20:54:16.786Z,12.07
2019-03-18T20:56:20.758Z,14.13
2019-03-18T20:58:24.595Z,15.20
2019-03-18T21:00:28.498Z,12.03
2019-03-18T21:02:32.384Z,12.73
2019-03-18T21:04:36.297Z,11.30
2019-03-18T21:06:40.016Z,6.67
2019-03-18T21:08:43.851Z,10.63
2019-03-18T21:10:47.571Z,8.83
2019-03-18T21:12:51.341Z,11.50
2019-03-18T21:14:55.208Z,10.47
2019-03-18T21:16:59.070Z,11.07
2019-03-18T21:19:02.733Z,7.90
2019-03-18T21:21:06.526Z,8.00
2019-03-18T21:23:10.347Z,7.13
2019-03-18T21:25:14.313Z,12.43
2019-03-18T21:27:18.207Z,11.63
2019-03-18T21:29:22.084Z,14.27
2019-03-18T21:31:25.909Z,9.70
2019-03-18T21:33:29.913Z,11.50
2019-03-18T21:35:34.027Z,11.33
2019-03-18T21:37:37.891Z,9.37
2019-03-18T21:39:41.638Z,6.47
2019-03-18T21:41:45.705Z,9.10
2019-03-18T21:43:49.865Z,7.90
2019-03-18T21:45:53.669Z,8.30
2019-03-18T21:47:57.744Z,7.37
2019-03-18T21:50:01.547Z,10.40
2019-03-18T21:52:05.583Z,7.83
2019-03-18T21:54:09.321Z,7.30
2019-03-18T21:56:13.252Z,12.00
2019-03-18T21:58:17.031Z,11.77
2019-03-18T22:00:24.547Z,15.47
2019-03-18T22:02:28.331Z,11.90
2019-03-18T22:04:32.345Z,13.10
2019-03-18T22:06:36.226Z,12.47
2019-03-18T22:08:40.020Z,17.93
2019-03-18T22:10:43.919Z,22.90
2019-03-18T22:12:48.923Z,18.17
2019-03-18T22:14:52.643Z,19.30
2019-03-18T22:16:56.650Z,14.97
2019-03-18T22:19:00.288Z,10.53
2019-03-18T22:21:04.182Z,14.33
2019-03-18T22:23:08.059Z,9.77
2019-03-18T22:25:13.048Z,11.30
2019-03-18T22:27:16.885Z,9.33
2019-03-18T22:29:20.902Z,7.57
2019-03-18T22:31:24.789Z,9.23
2019-03-18T22:33:30.233Z,10.90
2019-03-18T22:35:34.065Z,4.80
2019-03-18T22:37:38.374Z,7.17
2019-03-18T22:39:42.176Z,5.90
2019-03-18T22:41:46.183Z,6.37
2019-03-18T22:43:49.810Z,5.53
2019-03-18T22:45:54.889Z,7.07
2019-03-18T22:47:58.671Z,7.17
2019-03-18T22:50:02.521Z,8.37
2019-03-18T22:52:06.479Z,7.90
2019-03-18T22:54:10.478Z,11.67
2019-03-18T22:56:14.443Z,7.47
2019-03-18T22:58:19.459Z,6.40
2019-03-18T23:00:41.912Z,7.37
2019-03-18T23:02:46.743Z,7.13
2019-03-18T23:04:50.582Z,8.57
2019-03-18T23:06:54.443Z,10.53
2019-03-18T23:08:58.281Z,7.47
2019-03-18T23:11:02.332Z,8.97
2019-03-18T23:13:06.210Z,9.40
2019-03-18T23:15:10.552Z,11.13
2019-03-18T23:17:14.410Z,13.03
2019-03-18T23:19:18.219Z,9.23
2019-03-18T23:21:22.143Z,8.90
2019-03-18T23:23:26.045Z,6.07
2019-03-18T23:25:30.323Z,6.10
2019-03-18T23:27:34.300Z,7.67
2019-03-18T23:29:38.472Z,6.07
2019-03-18T23:31:42.227Z,4.63
2019-03-18T23:33:45.970Z,6.23
2019-03-18T23:35:49.779Z,11.10
2019-03-18T23:37:53.778Z,10.90
2019-03-18T23:39:57.785Z,8.83
2019-03-18T23:42:01.806Z,10.43
2019-03-18T23:44:05.675Z,8.40
2019-03-18T23:46:09.563Z,11.13
2019-03-18T23:48:13.455Z,9.47
2019-03-18T23:50:17.299Z,6.67
2019-03-18T23:52:21.085Z,6.53
2019-03-18T23:54:25.268Z,6.40
2019-03-18T23:56:29.108Z,7.33
2019-03-18T23:58:32.873Z,11.63
